Flynn, TX (77855)

5:40 PM CDT on August 28, 2015 (GMT -0500)
Lazy R Ranch | | Change Station
CLOSE
Current Station
Personal Weather Station
Location: Normangee, TX
Elevation: 479 ft
Nearby Weather Stations

Elev 479 ft 31.14 °N, 96.10 °W | Updated 7 minutes ago

Clear
Clear
98.6 °F
Feels Like 102 °F
N
4.2
Wind Variable Wind from NNE

Today
High -- | Low -- °F
--% Chance of Precip.
Yesterday
High -- | Low -- °F
Precip. -- in
6:58 AM 7:52 PM
Waxing Gibbous, 99% visible
Pressure 29.94 in
Visibility 10.0 miles
Clouds Clear
Heat Index 102 °F
Dew Point 64 °F
Humidity 33%
Rainfall 0.00 in
Snow Depth Not available.
UV 3 out of 12
Pollen 7.50 out of 12
Air Quality Not available.
Flu Activity Not available.
METAR KCFD 282235Z AUTO 16008KT 10SM CLR 35/18 A2994 RMK AO2 T03480179
Pressure 29.94 in
Visibility 10.0 miles
Clouds Clear
Heat Index 102 °F
Dew Point 64 °F
Humidity 33%
Rainfall 0.00 in
Snow Depth Not available.
UV 3 out of 12
Pollen 7.50 out of 12
Air Quality Not available.
Flu Activity Not available.
METAR KCFD 282235Z AUTO 16008KT 10SM CLR 35/18 A2994 RMK AO2 T03480179

10-Day Weather Forecast

×

Almanac

Astronomy

Aug. 28, 2015 Rise Set
Actual Time
Civil Twilight
Nautical Twilight
Astronomical Twilight
Moon
Length of Visible Light
Length of Day
Tomorrow will be .
, % of the Moon is Illuminated

Today's Extremes

State Highs State Lows

Community

WunderPhotos

Upload Photos

1,850,516 photos uploaded!

WunderBlogs® & News

Nearby

Air Quality

  Air Quality AQ Index Pollutant
Not available.

Snow Depth

Station Depth Elevation

Earthquake Activity

City Distance Mag. Time & Date
Minimum magnitude displayed is 2.5.

Coastal Water Temperatures

Place Temperature

Stations

Nearby Weather Stations

Station Location Temp. Windchill Dew Point Humidity Wind Precip. Elev Updated Type